Vremea acum in Iernut - Romania

Vrei sa afli care e starea vremii acum in Mures - Romania? Dorim sa iti furnizam starea vremii pentru Mures - Romania. Starea vremii Mures - Romania pentru astazi.

Vremea acum in Iernut

Temperatura: 11.3 °C

Este: Senin
Se simte ca: 11.7 °C
Innorat: 0 %
Precipitatii: 0 %
Presiune atmosferica: 1016 hPa
Umiditate: 62%
Vizibilitate: 10 km
Vantul bate din SW cu 3.6 km/h

Evolutia vremii in Iernut pe ore

Ora: 04:00
Senin
Temperatura: 8.1°C
Sansa de precipitatii: 0%
Ora Descriere Temp Se simte Precipitatii Umiditate Vant
00:00Senin10.2°10.2°0%80%WSW 2.9 KM/H
01:00Senin11.3°9.6°0%62%SW 3.6 KM/H
02:00Senin0%82%SSW 0.4 KM/H
03:00Senin8.5°8.5°0%83%SE 1.4 KM/H
04:00Senin8.1°8.1°0%84%SSE 2.5 KM/H
05:00Senin7.6°7.6°0%85%SSE 2.5 KM/H
06:00Senin7.2°7.2°0%86%SE 2.9 KM/H
07:00Senin8.3°8.4°0%85%ESE 3.6 KM/H
08:00Senin11.9°12.3°0%78%SE 3.6 KM/H
09:00Senin14.2°14.8°0%71%SE 4 KM/H
10:00Senin16.5°16.5°0%64%SSE 4.7 KM/H
11:00Senin18.4°18.4°0%59%S 4.7 KM/H
12:00Senin20.1°20.1°0%54%S 5 KM/H
13:00Senin21.6°21.6°0%50%S 4.3 KM/H
14:00Senin22.5°24.4°0%46%S 4.3 KM/H
15:00Senin23.1°24.5°0%42%SSW 4.7 KM/H
16:00Senin23.3°24.4°0%38%SSW 3.6 KM/H
17:00Senin23.2°24.2°0%36%SSW 2.5 KM/H
18:00Senin23°24.2°0%38%SSE 2.2 KM/H
19:00Senin21.9°21.9°0%50%ESE 1.1 KM/H
20:00Senin17.1°17.1°0%53%ENE 2.2 KM/H
21:00Senin14.5°14.5°0%56%ESE 2.9 KM/H
22:00Senin13.4°13.4°0%59%ESE 2.9 KM/H
23:00Senin12.6°13.2°0%61%ESE 3.6 KM/H




tutorials